sensor_id;sensor_type;location;lat;lon;timestamp;P1;durP1;ratioP1;P2;durP2;ratioP2
75285;SDS011;63879;46.064;14.532;2024-02-26T07:01:10;10.88;;;4.53;;
75285;SDS011;63879;46.064;14.532;2024-02-26T07:03:37;12.68;;;4.97;;
75285;SDS011;63879;46.064;14.532;2024-02-26T07:06:02;14.02;;;5.97;;
75285;SDS011;63879;46.064;14.532;2024-02-26T07:08:28;10.52;;;4.95;;
75285;SDS011;63879;46.064;14.532;2024-02-26T07:10:54;14.88;;;4.80;;
75285;SDS011;63879;46.064;14.532;2024-02-26T07:13:19;12.05;;;4.70;;
75285;SDS011;63879;46.064;14.532;2024-02-26T07:15:46;9.68;;;4.90;;
75285;SDS011;63879;46.064;14.532;2024-02-26T07:18:11;20.88;;;6.10;;
75285;SDS011;63879;46.064;14.532;2024-02-26T07:20:36;8.27;;;4.20;;
75285;SDS011;63879;46.064;14.532;2024-02-26T07:23:02;12.55;;;4.05;;
75285;SDS011;63879;46.064;14.532;2024-02-26T07:25:28;9.32;;;4.20;;
75285;SDS011;63879;46.064;14.532;2024-02-26T07:27:53;6.57;;;3.47;;
75285;SDS011;63879;46.064;14.532;2024-02-26T07:30:19;7.97;;;4.35;;
75285;SDS011;63879;46.064;14.532;2024-02-26T07:32:44;11.00;;;4.93;;
75285;SDS011;63879;46.064;14.532;2024-02-26T07:35:10;7.88;;;4.35;;
75285;SDS011;63879;46.064;14.532;2024-02-26T07:37:35;8.88;;;3.88;;
75285;SDS011;63879;46.064;14.532;2024-02-26T07:40:01;9.00;;;5.10;;
75285;SDS011;63879;46.064;14.532;2024-02-26T07:42:26;7.35;;;4.60;;
75285;SDS011;63879;46.064;14.532;2024-02-26T07:44:52;9.43;;;6.53;;
75285;SDS011;63879;46.064;14.532;2024-02-26T07:47:18;7.93;;;4.72;;
75285;SDS011;63879;46.064;14.532;2024-02-26T07:49:44;8.40;;;3.88;;
75285;SDS011;63879;46.064;14.532;2024-02-26T07:52:09;8.32;;;5.25;;
75285;SDS011;63879;46.064;14.532;2024-02-26T07:54:35;14.75;;;5.30;;
75285;SDS011;63879;46.064;14.532;2024-02-26T07:57:01;9.70;;;5.50;;
75285;SDS011;63879;46.064;14.532;2024-02-26T07:59:30;11.20;;;4.15;;
75285;SDS011;63879;46.064;14.532;2024-02-26T08:01:56;10.60;;;7.53;;
75285;SDS011;63879;46.064;14.532;2024-02-26T08:04:21;14.35;;;4.25;;
75285;SDS011;63879;46.064;14.532;2024-02-26T08:06:47;11.50;;;4.88;;
75285;SDS011;63879;46.064;14.532;2024-02-26T08:09:12;9.55;;;4.18;;
75285;SDS011;63879;46.064;14.532;2024-02-26T08:11:38;10.98;;;4.72;;
75285;SDS011;63879;46.064;14.532;2024-02-26T08:14:04;14.65;;;6.70;;
75285;SDS011;63879;46.064;14.532;2024-02-26T08:16:30;7.03;;;3.90;;
75285;SDS011;63879;46.064;14.532;2024-02-26T08:18:55;10.45;;;7.25;;
75285;SDS011;63879;46.064;14.532;2024-02-26T08:21:21;7.50;;;4.53;;
75285;SDS011;63879;46.064;14.532;2024-02-26T08:23:46;12.18;;;4.88;;
75285;SDS011;63879;46.064;14.532;2024-02-26T08:26:12;10.45;;;5.38;;
75285;SDS011;63879;46.064;14.532;2024-02-26T08:28:37;10.50;;;5.43;;
75285;SDS011;63879;46.064;14.532;2024-02-26T08:31:03;9.68;;;5.18;;
75285;SDS011;63879;46.064;14.532;2024-02-26T08:33:29;10.88;;;4.93;;
75285;SDS011;63879;46.064;14.532;2024-02-26T08:35:55;9.23;;;5.18;;
75285;SDS011;63879;46.064;14.532;2024-02-26T08:38:21;11.40;;;6.18;;
75285;SDS011;63879;46.064;14.532;2024-02-26T08:40:47;10.25;;;5.82;;
75285;SDS011;63879;46.064;14.532;2024-02-26T08:43:13;11.68;;;5.57;;
75285;SDS011;63879;46.064;14.532;2024-02-26T08:45:39;11.50;;;5.55;;
75285;SDS011;63879;46.064;14.532;2024-02-26T08:48:04;9.93;;;4.85;;
75285;SDS011;63879;46.064;14.532;2024-02-26T08:50:30;9.82;;;5.25;;
75285;SDS011;63879;46.064;14.532;2024-02-26T08:52:56;10.73;;;5.20;;
75285;SDS011;63879;46.064;14.532;2024-02-26T08:55:21;12.70;;;5.28;;
75285;SDS011;63879;46.064;14.532;2024-02-26T08:57:47;12.57;;;5.75;;
75285;SDS011;63879;46.064;14.532;2024-02-26T09:00:15;10.40;;;5.70;;
75285;SDS011;63879;46.064;14.532;2024-02-26T09:02:42;10.07;;;5.40;;
75285;SDS011;63879;46.064;14.532;2024-02-26T09:05:09;9.98;;;5.38;;
75285;SDS011;63879;46.064;14.532;2024-02-26T09:07:35;12.55;;;6.35;;
75285;SDS011;63879;46.064;14.532;2024-02-26T09:10:01;12.73;;;7.45;;
75285;SDS011;63879;46.064;14.532;2024-02-26T09:12:27;12.35;;;7.25;;
75285;SDS011;63879;46.064;14.532;2024-02-26T09:14:52;12.85;;;6.65;;
75285;SDS011;63879;46.064;14.532;2024-02-26T09:17:18;14.70;;;7.97;;
75285;SDS011;63879;46.064;14.532;2024-02-26T09:19:43;17.25;;;11.57;;
75285;SDS011;63879;46.064;14.532;2024-02-26T09:22:09;16.20;;;8.13;;
75285;SDS011;63879;46.064;14.532;2024-02-26T09:24:34;14.70;;;6.53;;
75285;SDS011;63879;46.064;14.532;2024-02-26T09:27:00;11.65;;;7.00;;
75285;SDS011;63879;46.064;14.532;2024-02-26T09:29:26;15.00;;;6.90;;
75285;SDS011;63879;46.064;14.532;2024-02-26T09:31:52;15.52;;;9.63;;
75285;SDS011;63879;46.064;14.532;2024-02-26T09:34:18;14.48;;;6.57;;
75285;SDS011;63879;46.064;14.532;2024-02-26T09:36:46;12.73;;;9.13;;
75285;SDS011;63879;46.064;14.532;2024-02-26T09:39:12;10.07;;;6.50;;
75285;SDS011;63879;46.064;14.532;2024-02-26T09:41:39;9.10;;;6.00;;
75285;SDS011;63879;46.064;14.532;2024-02-26T09:44:05;10.25;;;5.20;;
75285;SDS011;63879;46.064;14.532;2024-02-26T09:46:30;9.07;;;5.45;;
75285;SDS011;63879;46.064;14.532;2024-02-26T09:48:56;12.93;;;6.10;;
75285;SDS011;63879;46.064;14.532;2024-02-26T09:51:25;12.85;;;7.15;;
75285;SDS011;63879;46.064;14.532;2024-02-26T09:53:52;15.55;;;8.02;;
75285;SDS011;63879;46.064;14.532;2024-02-26T09:56:18;17.58;;;9.25;;
75285;SDS011;63879;46.064;14.532;2024-02-26T09:58:44;17.13;;;9.10;;
75285;SDS011;63879;46.064;14.532;2024-02-26T10:01:13;16.88;;;8.23;;
75285;SDS011;63879;46.064;14.532;2024-02-26T10:03:42;16.17;;;6.97;;
75285;SDS011;63879;46.064;14.532;2024-02-26T10:06:09;15.48;;;8.48;;
75285;SDS011;63879;46.064;14.532;2024-02-26T10:08:36;19.27;;;8.02;;
75285;SDS011;63879;46.064;14.532;2024-02-26T10:11:05;15.65;;;11.35;;
75285;SDS011;63879;46.064;14.532;2024-02-26T10:13:31;14.15;;;9.98;;
75285;SDS011;63879;46.064;14.532;2024-02-26T10:15:57;12.63;;;6.90;;
75285;SDS011;63879;46.064;14.532;2024-02-26T10:18:23;13.68;;;7.53;;
75285;SDS011;63879;46.064;14.532;2024-02-26T10:21:01;12.85;;;6.55;;
75285;SDS011;63879;46.064;14.532;2024-02-26T10:23:27;12.15;;;5.70;;
75285;SDS011;63879;46.064;14.532;2024-02-26T10:25:56;11.35;;;6.32;;
75285;SDS011;63879;46.064;14.532;2024-02-26T10:28:22;16.52;;;6.15;;
75285;SDS011;63879;46.064;14.532;2024-02-26T10:30:48;10.52;;;6.43;;
75285;SDS011;63879;46.064;14.532;2024-02-26T10:33:13;12.15;;;4.55;;
75285;SDS011;63879;46.064;14.532;2024-02-26T10:35:39;11.52;;;5.90;;
75285;SDS011;63879;46.064;14.532;2024-02-26T10:38:10;12.40;;;5.65;;
75285;SDS011;63879;46.064;14.532;2024-02-26T10:40:35;12.00;;;5.63;;
75285;SDS011;63879;46.064;14.532;2024-02-26T10:43:01;11.00;;;6.38;;
75285;SDS011;63879;46.064;14.532;2024-02-26T10:45:27;14.07;;;6.95;;
75285;SDS011;63879;46.064;14.532;2024-02-26T10:47:52;9.82;;;5.10;;
75285;SDS011;63879;46.064;14.532;2024-02-26T10:50:18;12.38;;;6.53;;
75285;SDS011;63879;46.064;14.532;2024-02-26T10:52:44;11.57;;;6.70;;
75285;SDS011;63879;46.064;14.532;2024-02-26T10:55:13;12.85;;;5.75;;
75285;SDS011;63879;46.064;14.532;2024-02-26T10:57:42;10.35;;;6.35;;
75285;SDS011;63879;46.064;14.532;2024-02-26T11:00:10;12.18;;;6.65;;
75285;SDS011;63879;46.064;14.532;2024-02-26T11:02:38;12.95;;;6.25;;
75285;SDS011;63879;46.064;14.532;2024-02-26T11:05:06;10.10;;;5.22;;
75285;SDS011;63879;46.064;14.532;2024-02-26T11:07:32;12.38;;;5.18;;
75285;SDS011;63879;46.064;14.532;2024-02-26T11:09:59;8.30;;;4.55;;
75285;SDS011;63879;46.064;14.532;2024-02-26T11:12:27;8.43;;;4.28;;
75285;SDS011;63879;46.064;14.532;2024-02-26T11:14:53;9.25;;;4.53;;
75285;SDS011;63879;46.064;14.532;2024-02-26T11:17:21;11.13;;;6.38;;
75285;SDS011;63879;46.064;14.532;2024-02-26T11:19:48;11.98;;;5.72;;
75285;SDS011;63879;46.064;14.532;2024-02-26T11:22:18;9.10;;;5.60;;
75285;SDS011;63879;46.064;14.532;2024-02-26T11:24:46;10.23;;;5.82;;
75285;SDS011;63879;46.064;14.532;2024-02-26T11:27:12;10.82;;;5.60;;
75285;SDS011;63879;46.064;14.532;2024-02-26T11:29:39;8.63;;;4.60;;
75285;SDS011;63879;46.064;14.532;2024-02-26T11:32:08;8.65;;;4.07;;
75285;SDS011;63879;46.064;14.532;2024-02-26T11:34:34;7.70;;;4.57;;
75285;SDS011;63879;46.064;14.532;2024-02-26T11:37:16;4.43;;;2.67;;
75285;SDS011;63879;46.064;14.532;2024-02-26T11:39:42;7.85;;;4.13;;
75285;SDS011;63879;46.064;14.532;2024-02-26T11:42:10;6.13;;;3.38;;
75285;SDS011;63879;46.064;14.532;2024-02-26T11:44:39;6.30;;;3.05;;
75285;SDS011;63879;46.064;14.532;2024-02-26T11:47:24;6.13;;;4.07;;
75285;SDS011;63879;46.064;14.532;2024-02-26T11:49:50;5.55;;;3.80;;
75285;SDS011;63879;46.064;14.532;2024-02-26T11:52:15;7.97;;;3.78;;
75285;SDS011;63879;46.064;14.532;2024-02-26T11:57:26;4.72;;;2.92;;
75285;SDS011;63879;46.064;14.532;2024-02-26T12:00:15;6.20;;;3.80;;
75285;SDS011;63879;46.064;14.532;2024-02-26T12:02:51;5.30;;;3.25;;
75285;SDS011;63879;46.064;14.532;2024-02-26T12:05:26;7.22;;;3.50;;
75285;SDS011;63879;46.064;14.532;2024-02-26T12:08:02;7.43;;;3.78;;
75285;SDS011;63879;46.064;14.532;2024-02-26T12:10:37;9.65;;;4.07;;
75285;SDS011;63879;46.064;14.532;2024-02-26T12:13:11;7.68;;;3.80;;
75285;SDS011;63879;46.064;14.532;2024-02-26T12:15:44;9.85;;;4.35;;
75285;SDS011;63879;46.064;14.532;2024-02-26T12:18:16;12.73;;;4.93;;
75285;SDS011;63879;46.064;14.532;2024-02-26T12:20:42;8.80;;;3.83;;
75285;SDS011;63879;46.064;14.532;2024-02-26T12:23:10;6.43;;;3.95;;
75285;SDS011;63879;46.064;14.532;2024-02-26T12:25:39;8.52;;;5.00;;
75285;SDS011;63879;46.064;14.532;2024-02-26T12:28:05;9.55;;;5.38;;
75285;SDS011;63879;46.064;14.532;2024-02-26T12:30:32;6.53;;;4.32;;
75285;SDS011;63879;46.064;14.532;2024-02-26T12:32:57;8.45;;;4.43;;
75285;SDS011;63879;46.064;14.532;2024-02-26T12:35:25;7.57;;;4.05;;
75285;SDS011;63879;46.064;14.532;2024-02-26T12:37:52;7.22;;;4.40;;
75285;SDS011;63879;46.064;14.532;2024-02-26T12:40:20;7.05;;;4.50;;
75285;SDS011;63879;46.064;14.532;2024-02-26T12:42:46;9.35;;;4.15;;
75285;SDS011;63879;46.064;14.532;2024-02-26T12:45:12;7.45;;;3.85;;
75285;SDS011;63879;46.064;14.532;2024-02-26T12:47:39;7.63;;;4.57;;
75285;SDS011;63879;46.064;14.532;2024-02-26T12:50:06;9.63;;;6.85;;
75285;SDS011;63879;46.064;14.532;2024-02-26T12:52:37;8.90;;;4.55;;
75285;SDS011;63879;46.064;14.532;2024-02-26T12:55:05;8.02;;;4.35;;
75285;SDS011;63879;46.064;14.532;2024-02-26T12:57:32;8.13;;;4.60;;
75285;SDS011;63879;46.064;14.532;2024-02-26T12:59:59;8.50;;;4.20;;
75285;SDS011;63879;46.064;14.532;2024-02-26T13:02:25;6.57;;;4.18;;
75285;SDS011;63879;46.064;14.532;2024-02-26T13:04:50;8.02;;;5.13;;
75285;SDS011;63879;46.064;14.532;2024-02-26T13:07:16;8.20;;;4.70;;
75285;SDS011;63879;46.064;14.532;2024-02-26T13:09:42;15.73;;;7.90;;
75285;SDS011;63879;46.064;14.532;2024-02-26T13:12:07;7.88;;;6.10;;
75285;SDS011;63879;46.064;14.532;2024-02-26T13:14:35;10.57;;;6.30;;
75285;SDS011;63879;46.064;14.532;2024-02-26T13:17:00;13.43;;;8.50;;
75285;SDS011;63879;46.064;14.532;2024-02-26T13:19:26;13.43;;;9.07;;
75285;SDS011;63879;46.064;14.532;2024-02-26T13:21:53;15.02;;;7.20;;
75285;SDS011;63879;46.064;14.532;2024-02-26T13:24:19;10.00;;;7.57;;
75285;SDS011;63879;46.064;14.532;2024-02-26T13:26:45;13.93;;;6.07;;
75285;SDS011;63879;46.064;14.532;2024-02-26T13:29:19;9.40;;;5.47;;
75285;SDS011;63879;46.064;14.532;2024-02-26T13:31:45;7.10;;;5.30;;
75285;SDS011;63879;46.064;14.532;2024-02-26T13:34:11;15.32;;;5.63;;
75285;SDS011;63879;46.064;14.532;2024-02-26T13:36:49;6.10;;;4.00;;
75285;SDS011;63879;46.064;14.532;2024-02-26T13:39:21;8.07;;;3.90;;
75285;SDS011;63879;46.064;14.532;2024-02-26T13:41:47;7.53;;;4.03;;
75285;SDS011;63879;46.064;14.532;2024-02-26T13:44:13;5.20;;;3.85;;
75285;SDS011;63879;46.064;14.532;2024-02-26T13:46:38;8.73;;;4.20;;
75285;SDS011;63879;46.064;14.532;2024-02-26T13:49:07;8.30;;;3.88;;
75285;SDS011;63879;46.064;14.532;2024-02-26T13:51:34;5.15;;;3.38;;
75285;SDS011;63879;46.064;14.532;2024-02-26T13:54:00;7.93;;;5.32;;
75285;SDS011;63879;46.064;14.532;2024-02-26T13:56:26;5.78;;;3.45;;
75285;SDS011;63879;46.064;14.532;2024-02-26T13:58:52;5.28;;;2.53;;
75285;SDS011;63879;46.064;14.532;2024-02-26T14:01:17;7.90;;;5.32;;
75285;SDS011;63879;46.064;14.532;2024-02-26T14:03:43;2.97;;;2.63;;
75285;SDS011;63879;46.064;14.532;2024-02-26T14:06:09;6.47;;;3.78;;
75285;SDS011;63879;46.064;14.532;2024-02-26T14:08:34;4.50;;;3.30;;
75285;SDS011;63879;46.064;14.532;2024-02-26T14:11:00;6.57;;;3.38;;
75285;SDS011;63879;46.064;14.532;2024-02-26T14:13:25;5.88;;;4.30;;
75285;SDS011;63879;46.064;14.532;2024-02-26T14:15:51;4.50;;;3.17;;
75285;SDS011;63879;46.064;14.532;2024-02-26T14:18:16;4.63;;;3.03;;
75285;SDS011;63879;46.064;14.532;2024-02-26T14:20:42;4.70;;;2.65;;
75285;SDS011;63879;46.064;14.532;2024-02-26T14:23:07;4.43;;;2.40;;
75285;SDS011;63879;46.064;14.532;2024-02-26T14:25:33;3.78;;;2.33;;
75285;SDS011;63879;46.064;14.532;2024-02-26T14:27:59;4.88;;;2.17;;
75285;SDS011;63879;46.064;14.532;2024-02-26T14:30:25;5.90;;;2.30;;
75285;SDS011;63879;46.064;14.532;2024-02-26T14:32:51;6.25;;;1.92;;
75285;SDS011;63879;46.064;14.532;2024-02-26T14:35:16;2.63;;;1.20;;
75285;SDS011;63879;46.064;14.532;2024-02-26T14:37:42;2.80;;;2.22;;
75285;SDS011;63879;46.064;14.532;2024-02-26T14:40:11;2.78;;;1.20;;
75285;SDS011;63879;46.064;14.532;2024-02-26T14:42:37;6.68;;;2.00;;
75285;SDS011;63879;46.064;14.532;2024-02-26T14:45:02;4.50;;;2.17;;
75285;SDS011;63879;46.064;14.532;2024-02-26T14:47:31;2.58;;;1.60;;
75285;SDS011;63879;46.064;14.532;2024-02-26T14:49:56;3.08;;;1.67;;
75285;SDS011;63879;46.064;14.532;2024-02-26T14:52:22;3.50;;;1.98;;
75285;SDS011;63879;46.064;14.532;2024-02-26T14:54:48;3.88;;;1.75;;
75285;SDS011;63879;46.064;14.532;2024-02-26T14:57:13;4.97;;;1.75;;
75285;SDS011;63879;46.064;14.532;2024-02-26T14:59:39;3.05;;;1.83;;
75285;SDS011;63879;46.064;14.532;2024-02-26T15:02:04;5.40;;;2.40;;
75285;SDS011;63879;46.064;14.532;2024-02-26T15:04:30;5.00;;;2.50;;
75285;SDS011;63879;46.064;14.532;2024-02-26T15:06:55;5.57;;;2.92;;
75285;SDS011;63879;46.064;14.532;2024-02-26T15:09:21;6.88;;;3.35;;
75285;SDS011;63879;46.064;14.532;2024-02-26T15:11:47;6.88;;;3.90;;
75285;SDS011;63879;46.064;14.532;2024-02-26T15:14:12;6.45;;;3.60;;
75285;SDS011;63879;46.064;14.532;2024-02-26T15:16:38;9.27;;;6.15;;
75285;SDS011;63879;46.064;14.532;2024-02-26T15:19:03;9.57;;;5.68;;
75285;SDS011;63879;46.064;14.532;2024-02-26T15:21:29;6.80;;;4.05;;
75285;SDS011;63879;46.064;14.532;2024-02-26T15:23:55;5.53;;;3.10;;
75285;SDS011;63879;46.064;14.532;2024-02-26T15:26:20;6.40;;;3.38;;
75285;SDS011;63879;46.064;14.532;2024-02-26T15:28:47;7.28;;;3.33;;
75285;SDS011;63879;46.064;14.532;2024-02-26T15:31:13;8.57;;;3.53;;
75285;SDS011;63879;46.064;14.532;2024-02-26T15:33:40;6.63;;;2.72;;
75285;SDS011;63879;46.064;14.532;2024-02-26T15:36:07;5.97;;;4.30;;
75285;SDS011;63879;46.064;14.532;2024-02-26T15:38:35;6.53;;;2.70;;
75285;SDS011;63879;46.064;14.532;2024-02-26T15:41:00;4.90;;;3.05;;
75285;SDS011;63879;46.064;14.532;2024-02-26T15:43:26;10.38;;;2.38;;
75285;SDS011;63879;46.064;14.532;2024-02-26T15:45:51;7.65;;;2.35;;
75285;SDS011;63879;46.064;14.532;2024-02-26T15:48:17;6.38;;;2.13;;
75285;SDS011;63879;46.064;14.532;2024-02-26T15:50:42;5.15;;;1.70;;
75285;SDS011;63879;46.064;14.532;2024-02-26T15:53:08;2.47;;;1.80;;
75285;SDS011;63879;46.064;14.532;2024-02-26T15:55:34;4.60;;;2.05;;
75285;SDS011;63879;46.064;14.532;2024-02-26T15:57:59;6.80;;;2.08;;
75285;SDS011;63879;46.064;14.532;2024-02-26T16:00:25;3.60;;;2.15;;
75285;SDS011;63879;46.064;14.532;2024-02-26T16:02:51;9.30;;;3.75;;
75285;SDS011;63879;46.064;14.532;2024-02-26T16:05:16;5.65;;;4.40;;
75285;SDS011;63879;46.064;14.532;2024-02-26T16:07:46;6.60;;;2.42;;
75285;SDS011;63879;46.064;14.532;2024-02-26T16:10:19;5.20;;;3.30;;
75285;SDS011;63879;46.064;14.532;2024-02-26T16:12:48;5.10;;;2.33;;
75285;SDS011;63879;46.064;14.532;2024-02-26T16:15:17;4.93;;;2.47;;
75285;SDS011;63879;46.064;14.532;2024-02-26T16:17:43;3.53;;;2.83;;
75285;SDS011;63879;46.064;14.532;2024-02-26T16:20:15;10.10;;;3.92;;
75285;SDS011;63879;46.064;14.532;2024-02-26T16:22:43;6.10;;;2.80;;
75285;SDS011;63879;46.064;14.532;2024-02-26T16:25:12;5.40;;;3.50;;
75285;SDS011;63879;46.064;14.532;2024-02-26T16:27:38;8.05;;;3.25;;
75285;SDS011;63879;46.064;14.532;2024-02-26T16:30:06;7.97;;;3.08;;
75285;SDS011;63879;46.064;14.532;2024-02-26T16:32:33;6.05;;;3.38;;
75285;SDS011;63879;46.064;14.532;2024-02-26T16:35:00;5.88;;;3.83;;
75285;SDS011;63879;46.064;14.532;2024-02-26T16:37:26;8.18;;;3.53;;
75285;SDS011;63879;46.064;14.532;2024-02-26T16:39:52;6.72;;;3.25;;
75285;SDS011;63879;46.064;14.532;2024-02-26T16:42:18;5.40;;;3.05;;
75285;SDS011;63879;46.064;14.532;2024-02-26T16:44:44;8.07;;;6.63;;
75285;SDS011;63879;46.064;14.532;2024-02-26T16:47:09;6.60;;;3.40;;
75285;SDS011;63879;46.064;14.532;2024-02-26T16:49:35;9.48;;;4.10;;
75285;SDS011;63879;46.064;14.532;2024-02-26T16:52:01;10.07;;;3.25;;
75285;SDS011;63879;46.064;14.532;2024-02-26T16:54:28;5.18;;;3.42;;
75285;SDS011;63879;46.064;14.532;2024-02-26T16:56:54;8.73;;;4.18;;
75285;SDS011;63879;46.064;14.532;2024-02-26T16:59:19;8.27;;;3.42;;
75285;SDS011;63879;46.064;14.532;2024-02-26T17:01:46;9.68;;;3.90;;
75285;SDS011;63879;46.064;14.532;2024-02-26T17:04:12;8.45;;;4.38;;
75285;SDS011;63879;46.064;14.532;2024-02-26T17:06:38;17.55;;;3.97;;
75285;SDS011;63879;46.064;14.532;2024-02-26T17:09:06;10.93;;;3.70;;
75285;SDS011;63879;46.064;14.532;2024-02-26T17:11:33;8.15;;;4.10;;
75285;SDS011;63879;46.064;14.532;2024-02-26T17:13:59;7.90;;;4.18;;
75285;SDS011;63879;46.064;14.532;2024-02-26T17:16:25;10.60;;;4.43;;
75285;SDS011;63879;46.064;14.532;2024-02-26T17:18:51;9.73;;;4.75;;
75285;SDS011;63879;46.064;14.532;2024-02-26T17:21:17;9.13;;;3.78;;
75285;SDS011;63879;46.064;14.532;2024-02-26T17:23:43;9.05;;;4.55;;
75285;SDS011;63879;46.064;14.532;2024-02-26T17:26:09;13.70;;;4.80;;
75285;SDS011;63879;46.064;14.532;2024-02-26T17:28:39;9.57;;;4.63;;
75285;SDS011;63879;46.064;14.532;2024-02-26T17:31:07;13.93;;;4.50;;
75285;SDS011;63879;46.064;14.532;2024-02-26T17:33:33;14.02;;;5.15;;
75285;SDS011;63879;46.064;14.532;2024-02-26T17:35:58;12.20;;;4.93;;
75285;SDS011;63879;46.064;14.532;2024-02-26T17:38:24;15.63;;;5.40;;
75285;SDS011;63879;46.064;14.532;2024-02-26T17:40:49;10.30;;;4.95;;
75285;SDS011;63879;46.064;14.532;2024-02-26T17:43:18;14.98;;;5.40;;
75285;SDS011;63879;46.064;14.532;2024-02-26T17:45:44;9.85;;;5.45;;
75285;SDS011;63879;46.064;14.532;2024-02-26T17:48:18;11.15;;;6.65;;
75285;SDS011;63879;46.064;14.532;2024-02-26T17:50:44;17.15;;;6.70;;
75285;SDS011;63879;46.064;14.532;2024-02-26T17:53:09;13.98;;;7.13;;
75285;SDS011;63879;46.064;14.532;2024-02-26T17:55:38;17.63;;;7.47;;
75285;SDS011;63879;46.064;14.532;2024-02-26T17:58:04;21.60;;;8.50;;
75285;SDS011;63879;46.064;14.532;2024-02-26T18:00:29;17.75;;;10.48;;
75285;SDS011;63879;46.064;14.532;2024-02-26T18:02:54;15.23;;;9.02;;
75285;SDS011;63879;46.064;14.532;2024-02-26T18:05:20;23.30;;;11.45;;
75285;SDS011;63879;46.064;14.532;2024-02-26T18:07:46;23.02;;;11.20;;
75285;SDS011;63879;46.064;14.532;2024-02-26T18:10:11;20.77;;;8.65;;
75285;SDS011;63879;46.064;14.532;2024-02-26T18:12:37;15.73;;;8.35;;
75285;SDS011;63879;46.064;14.532;2024-02-26T18:15:05;16.98;;;9.40;;
75285;SDS011;63879;46.064;14.532;2024-02-26T18:17:35;14.80;;;8.77;;
75285;SDS011;63879;46.064;14.532;2024-02-26T18:20:01;24.10;;;9.35;;
75285;SDS011;63879;46.064;14.532;2024-02-26T18:22:29;19.83;;;8.25;;
75285;SDS011;63879;46.064;14.532;2024-02-26T18:24:55;20.95;;;8.80;;
75285;SDS011;63879;46.064;14.532;2024-02-26T18:27:21;14.63;;;7.22;;
75285;SDS011;63879;46.064;14.532;2024-02-26T18:29:46;18.05;;;8.38;;
75285;SDS011;63879;46.064;14.532;2024-02-26T18:32:12;13.02;;;6.53;;
75285;SDS011;63879;46.064;14.532;2024-02-26T18:34:38;17.75;;;8.57;;
75285;SDS011;63879;46.064;14.532;2024-02-26T18:37:04;20.02;;;10.52;;
75285;SDS011;63879;46.064;14.532;2024-02-26T18:39:30;24.00;;;10.20;;
75285;SDS011;63879;46.064;14.532;2024-02-26T18:41:55;22.52;;;11.13;;
75285;SDS011;63879;46.064;14.532;2024-02-26T18:44:25;19.02;;;9.38;;
75285;SDS011;63879;46.064;14.532;2024-02-26T18:46:52;18.67;;;9.15;;
75285;SDS011;63879;46.064;14.532;2024-02-26T18:49:17;17.63;;;12.23;;
75285;SDS011;63879;46.064;14.532;2024-02-26T18:51:46;19.83;;;9.82;;
75285;SDS011;63879;46.064;14.532;2024-02-26T18:54:12;25.42;;;8.52;;
75285;SDS011;63879;46.064;14.532;2024-02-26T18:56:37;17.55;;;7.50;;
75285;SDS011;63879;46.064;14.532;2024-02-26T18:59:03;17.30;;;7.18;;
75285;SDS011;63879;46.064;14.532;2024-02-26T19:01:28;17.42;;;10.00;;
75285;SDS011;63879;46.064;14.532;2024-02-26T19:03:56;19.25;;;8.57;;
75285;SDS011;63879;46.064;14.532;2024-02-26T19:06:22;14.10;;;7.07;;
75285;SDS011;63879;46.064;14.532;2024-02-26T19:08:47;14.65;;;6.68;;
75285;SDS011;63879;46.064;14.532;2024-02-26T19:11:13;10.00;;;6.65;;
75285;SDS011;63879;46.064;14.532;2024-02-26T19:13:40;16.60;;;6.70;;
75285;SDS011;63879;46.064;14.532;2024-02-26T19:16:06;12.18;;;6.18;;
75285;SDS011;63879;46.064;14.532;2024-02-26T19:18:31;11.80;;;7.05;;
75285;SDS011;63879;46.064;14.532;2024-02-26T19:20:57;11.48;;;7.22;;
75285;SDS011;63879;46.064;14.532;2024-02-26T19:23:24;10.27;;;8.57;;
75285;SDS011;63879;46.064;14.532;2024-02-26T19:25:49;12.80;;;5.57;;
75285;SDS011;63879;46.064;14.532;2024-02-26T19:28:18;12.25;;;6.22;;
75285;SDS011;63879;46.064;14.532;2024-02-26T19:30:43;12.52;;;5.85;;
75285;SDS011;63879;46.064;14.532;2024-02-26T19:33:09;13.02;;;7.10;;
75285;SDS011;63879;46.064;14.532;2024-02-26T19:35:39;11.20;;;6.38;;
75285;SDS011;63879;46.064;14.532;2024-02-26T19:38:04;9.13;;;6.13;;
75285;SDS011;63879;46.064;14.532;2024-02-26T19:40:30;14.82;;;7.53;;
75285;SDS011;63879;46.064;14.532;2024-02-26T19:42:56;12.82;;;7.00;;
75285;SDS011;63879;46.064;14.532;2024-02-26T19:45:21;15.68;;;7.10;;
75285;SDS011;63879;46.064;14.532;2024-02-26T19:47:47;14.65;;;7.10;;
75285;SDS011;63879;46.064;14.532;2024-02-26T19:50:13;16.30;;;7.80;;
75285;SDS011;63879;46.064;14.532;2024-02-26T19:52:38;19.80;;;9.77;;
75285;SDS011;63879;46.064;14.532;2024-02-26T19:55:04;22.65;;;9.27;;
75285;SDS011;63879;46.064;14.532;2024-02-26T19:57:30;17.85;;;8.07;;
75285;SDS011;63879;46.064;14.532;2024-02-26T19:59:56;18.77;;;9.25;;
75285;SDS011;63879;46.064;14.532;2024-02-26T20:02:22;17.65;;;9.50;;
75285;SDS011;63879;46.064;14.532;2024-02-26T20:04:47;16.40;;;10.13;;
75285;SDS011;63879;46.064;14.532;2024-02-26T20:07:13;16.42;;;9.00;;
75285;SDS011;63879;46.064;14.532;2024-02-26T20:09:40;18.30;;;10.13;;
75285;SDS011;63879;46.064;14.532;2024-02-26T20:12:06;15.90;;;8.20;;
75285;SDS011;63879;46.064;14.532;2024-02-26T20:14:31;18.77;;;9.60;;
75285;SDS011;63879;46.064;14.532;2024-02-26T20:16:57;19.45;;;9.88;;
75285;SDS011;63879;46.064;14.532;2024-02-26T20:19:23;15.30;;;9.63;;
75285;SDS011;63879;46.064;14.532;2024-02-26T20:21:49;22.40;;;10.50;;
75285;SDS011;63879;46.064;14.532;2024-02-26T20:24:15;17.13;;;9.77;;
75285;SDS011;63879;46.064;14.532;2024-02-26T20:26:42;23.25;;;10.80;;
75285;SDS011;63879;46.064;14.532;2024-02-26T20:29:10;15.88;;;10.15;;
75285;SDS011;63879;46.064;14.532;2024-02-26T20:31:35;20.98;;;10.60;;
75285;SDS011;63879;46.064;14.532;2024-02-26T20:34:01;16.70;;;9.55;;
75285;SDS011;63879;46.064;14.532;2024-02-26T20:36:28;17.52;;;9.63;;
75285;SDS011;63879;46.064;14.532;2024-02-26T20:38:56;20.08;;;10.55;;
75285;SDS011;63879;46.064;14.532;2024-02-26T20:41:21;19.02;;;10.60;;
75285;SDS011;63879;46.064;14.532;2024-02-26T20:43:50;20.75;;;10.48;;
75285;SDS011;63879;46.064;14.532;2024-02-26T20:46:16;21.48;;;9.93;;
75285;SDS011;63879;46.064;14.532;2024-02-26T20:48:41;17.75;;;9.85;;
75285;SDS011;63879;46.064;14.532;2024-02-26T20:51:08;18.63;;;10.45;;
75285;SDS011;63879;46.064;14.532;2024-02-26T20:53:34;14.38;;;8.93;;
75285;SDS011;63879;46.064;14.532;2024-02-26T20:55:59;17.52;;;9.18;;
75285;SDS011;63879;46.064;14.532;2024-02-26T20:58:25;20.30;;;9.00;;
75285;SDS011;63879;46.064;14.532;2024-02-26T21:00:50;20.70;;;9.15;;
75285;SDS011;63879;46.064;14.532;2024-02-26T21:03:16;13.88;;;8.02;;
75285;SDS011;63879;46.064;14.532;2024-02-26T21:05:42;16.60;;;9.05;;
75285;SDS011;63879;46.064;14.532;2024-02-26T21:08:09;21.10;;;13.32;;
75285;SDS011;63879;46.064;14.532;2024-02-26T21:10:34;18.80;;;9.02;;
75285;SDS011;63879;46.064;14.532;2024-02-26T21:13:00;18.85;;;9.52;;
75285;SDS011;63879;46.064;14.532;2024-02-26T21:15:26;22.40;;;10.20;;
75285;SDS011;63879;46.064;14.532;2024-02-26T21:17:52;22.42;;;13.40;;
75285;SDS011;63879;46.064;14.532;2024-02-26T21:20:18;17.95;;;9.98;;
75285;SDS011;63879;46.064;14.532;2024-02-26T21:22:48;18.90;;;10.55;;
75285;SDS011;63879;46.064;14.532;2024-02-26T21:25:14;17.52;;;9.27;;